sensor_id;sensor_type;location;lat;lon;timestamp;P1;durP1;ratioP1;P2;durP2;ratioP2
7211;SDS011;3647;48.792;9.802;2022-11-18T05:54:02;1.60;;;1.40;;
7211;SDS011;3647;48.792;9.802;2022-11-18T05:56:34;1.50;;;1.40;;
7211;SDS011;3647;48.792;9.802;2022-11-18T05:59:02;1.30;;;1.30;;
7211;SDS011;3647;48.792;9.802;2022-11-18T06:01:29;1.50;;;1.37;;
7211;SDS011;3647;48.792;9.802;2022-11-18T06:04:00;1.63;;;1.53;;
7211;SDS011;3647;48.792;9.802;2022-11-18T06:06:28;2.30;;;1.47;;
7211;SDS011;3647;48.792;9.802;2022-11-18T06:08:56;1.10;;;1.10;;
7211;SDS011;3647;48.792;9.802;2022-11-18T06:11:28;1.30;;;1.30;;
7211;SDS011;3647;48.792;9.802;2022-11-18T06:13:58;1.30;;;1.20;;
7211;SDS011;3647;48.792;9.802;2022-11-18T06:16:27;1.27;;;1.27;;
7211;SDS011;3647;48.792;9.802;2022-11-18T06:18:57;1.13;;;1.10;;
7211;SDS011;3647;48.792;9.802;2022-11-18T06:21:24;1.30;;;1.30;;
7211;SDS011;3647;48.792;9.802;2022-11-18T06:23:51;2.30;;;1.43;;
7211;SDS011;3647;48.792;9.802;2022-11-18T06:26:18;1.20;;;1.20;;
7211;SDS011;3647;48.792;9.802;2022-11-18T06:28:47;1.40;;;1.30;;
7211;SDS011;3647;48.792;9.802;2022-11-18T06:31:14;1.50;;;1.40;;
7211;SDS011;3647;48.792;9.802;2022-11-18T06:33:41;1.63;;;1.60;;
7211;SDS011;3647;48.792;9.802;2022-11-18T06:49:06;2.47;;;1.50;;
7211;SDS011;3647;48.792;9.802;2022-11-18T06:51:33;2.60;;;1.30;;
7211;SDS011;3647;48.792;9.802;2022-11-18T06:54:00;1.50;;;1.40;;
7211;SDS011;3647;48.792;9.802;2022-11-18T06:56:27;1.60;;;1.50;;
7211;SDS011;3647;48.792;9.802;2022-11-18T06:58:54;1.60;;;1.50;;
7211;SDS011;3647;48.792;9.802;2022-11-18T07:01:23;1.70;;;1.60;;
7211;SDS011;3647;48.792;9.802;2022-11-18T07:03:51;1.93;;;1.70;;
7211;SDS011;3647;48.792;9.802;2022-11-18T07:06:20;2.00;;;1.83;;
7211;SDS011;3647;48.792;9.802;2022-11-18T07:08:48;1.93;;;1.83;;
7211;SDS011;3647;48.792;9.802;2022-11-18T09:38:52;3.10;;;2.80;;
7211;SDS011;3647;48.792;9.802;2022-11-18T09:41:23;2.37;;;2.20;;
7211;SDS011;3647;48.792;9.802;2022-11-18T09:44:22;2.30;;;2.10;;
7211;SDS011;3647;48.792;9.802;2022-11-18T09:47:03;4.27;;;2.90;;
7211;SDS011;3647;48.792;9.802;2022-11-18T09:49:37;2.43;;;2.23;;
7211;SDS011;3647;48.792;9.802;2022-11-18T09:52:09;2.57;;;2.37;;
7211;SDS011;3647;48.792;9.802;2022-11-18T09:54:42;2.17;;;2.07;;
7211;SDS011;3647;48.792;9.802;2022-11-18T09:57:10;2.93;;;2.73;;
7211;SDS011;3647;48.792;9.802;2022-11-18T09:59:40;2.20;;;2.10;;
7211;SDS011;3647;48.792;9.802;2022-11-18T10:02:21;2.10;;;2.00;;
7211;SDS011;3647;48.792;9.802;2022-11-18T10:04:55;3.30;;;2.20;;
7211;SDS011;3647;48.792;9.802;2022-11-18T10:07:27;2.57;;;2.37;;
7211;SDS011;3647;48.792;9.802;2022-11-18T10:10:06;2.50;;;2.30;;
7211;SDS011;3647;48.792;9.802;2022-11-18T10:12:42;2.97;;;2.70;;
7211;SDS011;3647;48.792;9.802;2022-11-18T10:15:16;2.60;;;2.40;;
7211;SDS011;3647;48.792;9.802;2022-11-18T10:17:50;2.20;;;2.00;;
7211;SDS011;3647;48.792;9.802;2022-11-18T10:20:27;2.20;;;2.10;;
7211;SDS011;3647;48.792;9.802;2022-11-18T10:23:04;1.90;;;1.80;;
7211;SDS011;3647;48.792;9.802;2022-11-18T10:25:39;2.70;;;2.43;;
7211;SDS011;3647;48.792;9.802;2022-11-18T10:28:13;2.50;;;2.30;;
7211;SDS011;3647;48.792;9.802;2022-11-18T10:30:43;2.33;;;2.10;;
7211;SDS011;3647;48.792;9.802;2022-11-18T10:33:17;2.47;;;2.17;;
7211;SDS011;3647;48.792;9.802;2022-11-18T10:36:07;3.57;;;2.13;;
7211;SDS011;3647;48.792;9.802;2022-11-18T10:38:36;2.27;;;2.07;;
7211;SDS011;3647;48.792;9.802;2022-11-18T10:41:05;2.90;;;2.13;;
7211;SDS011;3647;48.792;9.802;2022-11-18T13:27:03;5.53;;;3.53;;
7211;SDS011;3647;48.792;9.802;2022-11-18T13:29:33;4.03;;;3.50;;
7211;SDS011;3647;48.792;9.802;2022-11-18T13:32:07;3.40;;;3.00;;
7211;SDS011;3647;48.792;9.802;2022-11-18T13:34:45;3.67;;;2.97;;
7211;SDS011;3647;48.792;9.802;2022-11-18T13:37:14;2.73;;;2.53;;
7211;SDS011;3647;48.792;9.802;2022-11-18T13:39:44;5.43;;;2.60;;
7211;SDS011;3647;48.792;9.802;2022-11-18T13:42:15;6.00;;;3.13;;
7211;SDS011;3647;48.792;9.802;2022-11-18T13:44:45;3.50;;;2.80;;
7211;SDS011;3647;48.792;9.802;2022-11-18T13:47:19;15.83;;;7.53;;
7211;SDS011;3647;48.792;9.802;2022-11-18T13:49:51;10.03;;;5.97;;
7211;SDS011;3647;48.792;9.802;2022-11-18T13:52:29;7.63;;;5.40;;
7211;SDS011;3647;48.792;9.802;2022-11-18T13:54:59;4.80;;;3.60;;
7211;SDS011;3647;48.792;9.802;2022-11-18T13:57:33;6.20;;;3.47;;
7211;SDS011;3647;48.792;9.802;2022-11-18T14:00:02;2.97;;;2.67;;
7211;SDS011;3647;48.792;9.802;2022-11-18T14:02:36;5.10;;;3.13;;
7211;SDS011;3647;48.792;9.802;2022-11-18T14:05:05;4.77;;;2.70;;
7211;SDS011;3647;48.792;9.802;2022-11-18T14:07:41;3.20;;;2.83;;
7211;SDS011;3647;48.792;9.802;2022-11-18T14:10:27;5.83;;;2.27;;
7211;SDS011;3647;48.792;9.802;2022-11-18T14:13:00;3.13;;;2.40;;
7211;SDS011;3647;48.792;9.802;2022-11-18T14:15:32;4.33;;;3.00;;
7211;SDS011;3647;48.792;9.802;2022-11-18T14:18:01;3.53;;;2.80;;
7211;SDS011;3647;48.792;9.802;2022-11-18T14:20:30;3.87;;;2.80;;
7211;SDS011;3647;48.792;9.802;2022-11-18T14:22:57;3.27;;;2.90;;
7211;SDS011;3647;48.792;9.802;2022-11-18T14:25:27;3.47;;;3.17;;
7211;SDS011;3647;48.792;9.802;2022-11-18T14:27:56;4.13;;;2.90;;
7211;SDS011;3647;48.792;9.802;2022-11-18T14:30:36;3.53;;;3.23;;
7211;SDS011;3647;48.792;9.802;2022-11-18T14:33:09;2.83;;;2.63;;
7211;SDS011;3647;48.792;9.802;2022-11-18T14:35:41;4.23;;;3.10;;
7211;SDS011;3647;48.792;9.802;2022-11-18T14:38:10;3.50;;;2.30;;
7211;SDS011;3647;48.792;9.802;2022-11-18T14:40:39;3.30;;;3.00;;
7211;SDS011;3647;48.792;9.802;2022-11-18T14:43:06;4.70;;;3.43;;
7211;SDS011;3647;48.792;9.802;2022-11-18T14:45:34;3.77;;;2.93;;
7211;SDS011;3647;48.792;9.802;2022-11-18T14:48:04;2.80;;;2.50;;
7211;SDS011;3647;48.792;9.802;2022-11-18T14:50:31;2.90;;;2.10;;
7211;SDS011;3647;48.792;9.802;2022-11-18T14:52:58;4.97;;;2.37;;
7211;SDS011;3647;48.792;9.802;2022-11-18T14:55:25;3.13;;;2.53;;
7211;SDS011;3647;48.792;9.802;2022-11-18T14:57:52;3.53;;;2.43;;
7211;SDS011;3647;48.792;9.802;2022-11-18T15:00:19;2.93;;;2.00;;
7211;SDS011;3647;48.792;9.802;2022-11-18T15:02:47;4.43;;;2.30;;
7211;SDS011;3647;48.792;9.802;2022-11-18T15:05:14;3.40;;;2.70;;
7211;SDS011;3647;48.792;9.802;2022-11-18T15:07:41;4.73;;;3.27;;
7211;SDS011;3647;48.792;9.802;2022-11-18T15:10:09;3.37;;;2.93;;
7211;SDS011;3647;48.792;9.802;2022-11-18T15:12:39;4.43;;;3.10;;
7211;SDS011;3647;48.792;9.802;2022-11-18T15:15:06;2.57;;;2.37;;
7211;SDS011;3647;48.792;9.802;2022-11-18T15:17:34;2.70;;;2.50;;
7211;SDS011;3647;48.792;9.802;2022-11-18T15:20:02;2.73;;;2.40;;
7211;SDS011;3647;48.792;9.802;2022-11-18T15:22:30;2.50;;;2.30;;
7211;SDS011;3647;48.792;9.802;2022-11-18T15:24:58;3.27;;;2.60;;
7211;SDS011;3647;48.792;9.802;2022-11-18T15:27:25;2.90;;;2.60;;
7211;SDS011;3647;48.792;9.802;2022-11-18T15:29:52;7.23;;;2.93;;
7211;SDS011;3647;48.792;9.802;2022-11-18T15:32:19;6.83;;;2.80;;
7211;SDS011;3647;48.792;9.802;2022-11-18T15:34:45;3.30;;;2.13;;
7211;SDS011;3647;48.792;9.802;2022-11-18T15:37:13;2.60;;;2.30;;
7211;SDS011;3647;48.792;9.802;2022-11-18T15:39:40;4.63;;;2.80;;
7211;SDS011;3647;48.792;9.802;2022-11-18T15:42:08;4.60;;;2.67;;
7211;SDS011;3647;48.792;9.802;2022-11-18T15:44:35;2.77;;;2.57;;
7211;SDS011;3647;48.792;9.802;2022-11-18T15:47:02;3.87;;;2.57;;
7211;SDS011;3647;48.792;9.802;2022-11-18T15:49:29;4.53;;;2.40;;
7211;SDS011;3647;48.792;9.802;2022-11-18T15:51:55;6.17;;;3.00;;
7211;SDS011;3647;48.792;9.802;2022-11-18T15:54:24;2.70;;;2.13;;
7211;SDS011;3647;48.792;9.802;2022-11-18T15:56:50;2.40;;;2.20;;
7211;SDS011;3647;48.792;9.802;2022-11-18T15:59:17;3.97;;;2.90;;
7211;SDS011;3647;48.792;9.802;2022-11-18T16:01:44;5.30;;;3.10;;
7211;SDS011;3647;48.792;9.802;2022-11-18T16:04:13;3.43;;;2.63;;
7211;SDS011;3647;48.792;9.802;2022-11-18T16:06:41;5.53;;;4.23;;
7211;SDS011;3647;48.792;9.802;2022-11-18T16:09:08;8.87;;;5.90;;
7211;SDS011;3647;48.792;9.802;2022-11-18T16:11:37;7.70;;;6.87;;
7211;SDS011;3647;48.792;9.802;2022-11-18T16:14:22;6.43;;;5.00;;
7211;SDS011;3647;48.792;9.802;2022-11-18T16:16:50;6.80;;;5.50;;
7211;SDS011;3647;48.792;9.802;2022-11-18T16:19:18;8.53;;;5.20;;
7211;SDS011;3647;48.792;9.802;2022-11-18T16:21:48;7.60;;;5.03;;
7211;SDS011;3647;48.792;9.802;2022-11-18T16:24:18;5.60;;;3.97;;
7211;SDS011;3647;48.792;9.802;2022-11-18T16:26:48;4.20;;;3.60;;
7211;SDS011;3647;48.792;9.802;2022-11-18T16:29:15;5.33;;;3.33;;
7211;SDS011;3647;48.792;9.802;2022-11-18T16:31:44;5.33;;;3.60;;
7211;SDS011;3647;48.792;9.802;2022-11-18T16:34:15;5.20;;;3.33;;
7211;SDS011;3647;48.792;9.802;2022-11-18T16:36:43;4.13;;;3.27;;
7211;SDS011;3647;48.792;9.802;2022-11-18T16:39:11;7.07;;;4.33;;
7211;SDS011;3647;48.792;9.802;2022-11-18T16:41:40;3.83;;;3.40;;
7211;SDS011;3647;48.792;9.802;2022-11-18T16:44:09;8.37;;;3.17;;
7211;SDS011;3647;48.792;9.802;2022-11-18T16:46:38;3.27;;;2.87;;
7211;SDS011;3647;48.792;9.802;2022-11-18T16:49:06;4.07;;;3.17;;
7211;SDS011;3647;48.792;9.802;2022-11-18T16:51:36;7.87;;;4.80;;
7211;SDS011;3647;48.792;9.802;2022-11-18T16:54:06;5.60;;;4.47;;
7211;SDS011;3647;48.792;9.802;2022-11-18T16:56:38;4.90;;;4.23;;
7211;SDS011;3647;48.792;9.802;2022-11-18T16:59:06;8.77;;;5.97;;
7211;SDS011;3647;48.792;9.802;2022-11-18T17:01:38;8.87;;;5.00;;
7211;SDS011;3647;48.792;9.802;2022-11-18T17:04:05;5.57;;;4.20;;
7211;SDS011;3647;48.792;9.802;2022-11-18T17:06:32;4.40;;;4.00;;
7211;SDS011;3647;48.792;9.802;2022-11-18T17:08:59;5.13;;;3.47;;
7211;SDS011;3647;48.792;9.802;2022-11-18T17:11:26;4.13;;;3.40;;
7211;SDS011;3647;48.792;9.802;2022-11-18T17:13:53;4.77;;;3.10;;
7211;SDS011;3647;48.792;9.802;2022-11-18T17:16:23;5.20;;;3.23;;
7211;SDS011;3647;48.792;9.802;2022-11-18T17:18:52;5.20;;;4.03;;
7211;SDS011;3647;48.792;9.802;2022-11-18T17:21:20;3.60;;;3.30;;
7211;SDS011;3647;48.792;9.802;2022-11-18T17:23:47;3.60;;;3.27;;
7211;SDS011;3647;48.792;9.802;2022-11-18T17:26:16;5.37;;;3.87;;
7211;SDS011;3647;48.792;9.802;2022-11-18T17:28:45;5.60;;;3.60;;
7211;SDS011;3647;48.792;9.802;2022-11-18T17:31:12;6.53;;;3.30;;
7211;SDS011;3647;48.792;9.802;2022-11-18T17:33:42;4.30;;;2.90;;
7211;SDS011;3647;48.792;9.802;2022-11-18T17:36:10;4.07;;;3.67;;
7211;SDS011;3647;48.792;9.802;2022-11-18T17:38:38;6.00;;;3.80;;
7211;SDS011;3647;48.792;9.802;2022-11-18T17:41:07;4.50;;;3.70;;
7211;SDS011;3647;48.792;9.802;2022-11-18T17:43:55;4.20;;;3.40;;
7211;SDS011;3647;48.792;9.802;2022-11-18T17:46:21;4.57;;;3.90;;
7211;SDS011;3647;48.792;9.802;2022-11-18T17:48:52;6.23;;;3.83;;
7211;SDS011;3647;48.792;9.802;2022-11-18T17:51:19;10.07;;;3.93;;
7211;SDS011;3647;48.792;9.802;2022-11-18T17:53:46;3.87;;;3.40;;
7211;SDS011;3647;48.792;9.802;2022-11-18T17:56:13;6.03;;;3.70;;
7211;SDS011;3647;48.792;9.802;2022-11-18T17:58:40;8.00;;;5.13;;
7211;SDS011;3647;48.792;9.802;2022-11-18T18:01:07;6.57;;;4.97;;
7211;SDS011;3647;48.792;9.802;2022-11-18T18:03:34;9.30;;;5.77;;
7211;SDS011;3647;48.792;9.802;2022-11-18T18:06:03;9.17;;;7.30;;
7211;SDS011;3647;48.792;9.802;2022-11-18T18:08:31;7.60;;;6.20;;
7211;SDS011;3647;48.792;9.802;2022-11-18T18:10:59;9.03;;;6.17;;
7211;SDS011;3647;48.792;9.802;2022-11-18T18:13:26;32.63;;;17.70;;
7211;SDS011;3647;48.792;9.802;2022-11-18T18:16:10;12.57;;;9.67;;
7211;SDS011;3647;48.792;9.802;2022-11-18T18:18:37;9.60;;;7.57;;
7211;SDS011;3647;48.792;9.802;2022-11-18T18:21:05;8.80;;;5.73;;
7211;SDS011;3647;48.792;9.802;2022-11-18T18:23:33;4.77;;;4.27;;
7211;SDS011;3647;48.792;9.802;2022-11-18T18:26:00;3.83;;;3.27;;
7211;SDS011;3647;48.792;9.802;2022-11-18T18:28:27;5.97;;;4.03;;
7211;SDS011;3647;48.792;9.802;2022-11-18T18:30:57;5.47;;;3.60;;
7211;SDS011;3647;48.792;9.802;2022-11-18T18:33:25;4.13;;;3.57;;
7211;SDS011;3647;48.792;9.802;2022-11-18T18:35:54;7.70;;;3.60;;
7211;SDS011;3647;48.792;9.802;2022-11-18T18:38:23;8.30;;;3.57;;
7211;SDS011;3647;48.792;9.802;2022-11-18T18:40:50;4.97;;;3.57;;
7211;SDS011;3647;48.792;9.802;2022-11-18T18:43:17;4.90;;;3.67;;
7211;SDS011;3647;48.792;9.802;2022-11-18T18:45:44;4.50;;;4.10;;
7211;SDS011;3647;48.792;9.802;2022-11-18T18:48:37;5.63;;;4.20;;
7211;SDS011;3647;48.792;9.802;2022-11-18T18:51:04;7.13;;;4.47;;
7211;SDS011;3647;48.792;9.802;2022-11-18T18:53:33;5.47;;;4.20;;
7211;SDS011;3647;48.792;9.802;2022-11-18T18:56:00;5.93;;;4.43;;
7211;SDS011;3647;48.792;9.802;2022-11-18T18:58:27;10.87;;;5.80;;
7211;SDS011;3647;48.792;9.802;2022-11-18T19:00:54;5.93;;;4.50;;
7211;SDS011;3647;48.792;9.802;2022-11-18T19:03:30;8.33;;;4.70;;
7211;SDS011;3647;48.792;9.802;2022-11-18T19:05:57;9.47;;;4.87;;
7211;SDS011;3647;48.792;9.802;2022-11-18T19:08:24;4.90;;;4.50;;
7211;SDS011;3647;48.792;9.802;2022-11-18T19:10:52;6.63;;;5.27;;
7211;SDS011;3647;48.792;9.802;2022-11-18T19:13:19;6.13;;;5.20;;
7211;SDS011;3647;48.792;9.802;2022-11-18T19:15:45;8.13;;;5.40;;
7211;SDS011;3647;48.792;9.802;2022-11-18T19:18:12;8.23;;;5.87;;
7211;SDS011;3647;48.792;9.802;2022-11-18T19:20:41;5.37;;;4.80;;
7211;SDS011;3647;48.792;9.802;2022-11-18T19:23:10;7.07;;;6.10;;
7211;SDS011;3647;48.792;9.802;2022-11-18T19:25:37;7.47;;;5.43;;
7211;SDS011;3647;48.792;9.802;2022-11-18T19:28:05;5.83;;;4.67;;
7211;SDS011;3647;48.792;9.802;2022-11-18T19:30:35;5.60;;;4.37;;
7211;SDS011;3647;48.792;9.802;2022-11-18T19:33:02;7.33;;;4.93;;
7211;SDS011;3647;48.792;9.802;2022-11-18T19:35:29;5.03;;;4.50;;
7211;SDS011;3647;48.792;9.802;2022-11-18T19:37:56;5.57;;;4.90;;
7211;SDS011;3647;48.792;9.802;2022-11-18T19:40:23;5.70;;;4.80;;
7211;SDS011;3647;48.792;9.802;2022-11-18T19:42:50;9.60;;;5.50;;
7211;SDS011;3647;48.792;9.802;2022-11-18T19:45:19;8.90;;;4.90;;
7211;SDS011;3647;48.792;9.802;2022-11-18T19:47:46;9.47;;;5.47;;
7211;SDS011;3647;48.792;9.802;2022-11-18T19:50:13;6.83;;;4.40;;
7211;SDS011;3647;48.792;9.802;2022-11-18T19:52:40;4.60;;;4.10;;
7211;SDS011;3647;48.792;9.802;2022-11-18T19:55:07;5.27;;;4.50;;
7211;SDS011;3647;48.792;9.802;2022-11-18T19:57:34;7.17;;;3.93;;
7211;SDS011;3647;48.792;9.802;2022-11-18T20:00:01;7.07;;;5.53;;
7211;SDS011;3647;48.792;9.802;2022-11-18T20:02:30;7.53;;;4.43;;
7211;SDS011;3647;48.792;9.802;2022-11-18T20:04:57;7.90;;;4.00;;
7211;SDS011;3647;48.792;9.802;2022-11-18T20:07:41;5.07;;;4.40;;
7211;SDS011;3647;48.792;9.802;2022-11-18T20:10:08;4.27;;;3.87;;
7211;SDS011;3647;48.792;9.802;2022-11-18T20:12:35;4.37;;;3.97;;
7211;SDS011;3647;48.792;9.802;2022-11-18T20:15:02;8.83;;;5.93;;
7211;SDS011;3647;48.792;9.802;2022-11-18T20:17:31;5.70;;;5.20;;
7211;SDS011;3647;48.792;9.802;2022-11-18T20:19:58;8.27;;;4.57;;
7211;SDS011;3647;48.792;9.802;2022-11-18T20:22:25;7.20;;;4.57;;
7211;SDS011;3647;48.792;9.802;2022-11-18T20:24:51;5.67;;;4.27;;
7211;SDS011;3647;48.792;9.802;2022-11-18T20:27:18;7.27;;;4.73;;
7211;SDS011;3647;48.792;9.802;2022-11-18T20:29:45;5.67;;;4.93;;
7211;SDS011;3647;48.792;9.802;2022-11-18T20:32:12;6.80;;;4.37;;
7211;SDS011;3647;48.792;9.802;2022-11-18T20:34:40;5.87;;;5.23;;
7211;SDS011;3647;48.792;9.802;2022-11-18T20:37:07;7.40;;;4.30;;
7211;SDS011;3647;48.792;9.802;2022-11-18T20:39:35;6.77;;;3.77;;
7211;SDS011;3647;48.792;9.802;2022-11-18T20:42:02;4.40;;;3.50;;
7211;SDS011;3647;48.792;9.802;2022-11-18T20:44:47;4.43;;;3.77;;
7211;SDS011;3647;48.792;9.802;2022-11-18T20:47:14;6.77;;;4.00;;
7211;SDS011;3647;48.792;9.802;2022-11-18T20:49:42;5.73;;;3.73;;
7211;SDS011;3647;48.792;9.802;2022-11-18T20:52:09;4.17;;;3.50;;
7211;SDS011;3647;48.792;9.802;2022-11-18T20:54:36;4.13;;;3.73;;
7211;SDS011;3647;48.792;9.802;2022-11-18T20:57:03;4.23;;;3.30;;
7211;SDS011;3647;48.792;9.802;2022-11-18T20:59:30;5.07;;;3.83;;
7211;SDS011;3647;48.792;9.802;2022-11-18T21:01:57;5.03;;;4.27;;
7211;SDS011;3647;48.792;9.802;2022-11-18T21:04:23;4.10;;;3.70;;
7211;SDS011;3647;48.792;9.802;2022-11-18T21:06:52;4.33;;;3.93;;
7211;SDS011;3647;48.792;9.802;2022-11-18T21:09:22;4.50;;;3.90;;
